sensor_id;sensor_type;location;lat;lon;timestamp;pressure;altitude;pressure_sealevel;temperature;humidity
53758;BME280;39674;59.860;30.672;2023-02-04T01:31:48;101169.53;;;-4.52;100.00
53758;BME280;39674;59.860;30.672;2023-02-04T02:07:55;101215.97;;;-4.49;100.00
53758;BME280;39674;59.860;30.672;2023-02-04T02:12:48;101221.09;;;-4.51;100.00
53758;BME280;39674;59.860;30.672;2023-02-04T02:16:03;101229.69;;;-4.50;100.00
53758;BME280;39674;59.860;30.672;2023-02-04T02:21:52;101237.47;;;-4.48;100.00
53758;BME280;39674;59.860;30.672;2023-02-04T03:23:01;101326.56;;;-4.20;100.00
53758;BME280;39674;59.860;30.672;2023-02-04T03:26:20;101328.31;;;-4.19;100.00
53758;BME280;39674;59.860;30.672;2023-02-04T03:30:19;101330.91;;;-4.17;100.00
53758;BME280;39674;59.860;30.672;2023-02-04T03:33:50;101340.41;;;-4.15;100.00
53758;BME280;39674;59.860;30.672;2023-02-04T03:43:08;101345.56;;;-4.15;100.00
53758;BME280;39674;59.860;30.672;2023-02-04T03:45:47;101352.44;;;-4.15;100.00
53758;BME280;39674;59.860;30.672;2023-02-04T03:53:29;101361.97;;;-4.11;100.00
53758;BME280;39674;59.860;30.672;2023-02-04T05:09:46;101476.69;;;-3.95;100.00
53758;BME280;39674;59.860;30.672;2023-02-04T07:52:39;101695.41;;;-3.09;100.00
53758;BME280;39674;59.860;30.672;2023-02-04T07:55:47;101700.59;;;-3.09;100.00
53758;BME280;39674;59.860;30.672;2023-02-04T07:58:40;101704.06;;;-3.07;100.00
53758;BME280;39674;59.860;30.672;2023-02-04T08:01:19;101709.31;;;-3.03;100.00
53758;BME280;39674;59.860;30.672;2023-02-04T08:04:13;101700.75;;;-2.99;100.00
53758;BME280;39674;59.860;30.672;2023-02-04T08:06:49;101704.25;;;-2.97;100.00
53758;BME280;39674;59.860;30.672;2023-02-04T08:09:28;101711.22;;;-2.93;100.00
53758;BME280;39674;59.860;30.672;2023-02-04T08:11:59;101715.56;;;-2.92;100.00
53758;BME280;39674;59.860;30.672;2023-02-04T08:14:36;101720.78;;;-2.91;100.00
53758;BME280;39674;59.860;30.672;2023-02-04T08:20:06;101732.09;;;-2.84;100.00
53758;BME280;39674;59.860;30.672;2023-02-04T08:22:39;101736.47;;;-2.81;100.00
53758;BME280;39674;59.860;30.672;2023-02-04T08:25:11;101740.81;;;-2.79;100.00
53758;BME280;39674;59.860;30.672;2023-02-04T08:27:46;101743.41;;;-2.79;100.00
53758;BME280;39674;59.860;30.672;2023-02-04T08:30:14;101746.88;;;-2.78;100.00
53758;BME280;39674;59.860;30.672;2023-02-04T08:32:47;101749.50;;;-2.77;100.00
53758;BME280;39674;59.860;30.672;2023-02-04T08:35:45;101750.41;;;-2.73;100.00
53758;BME280;39674;59.860;30.672;2023-02-04T08:39:10;101753.88;;;-2.72;100.00
53758;BME280;39674;59.860;30.672;2023-02-04T08:41:29;101760.00;;;-2.67;100.00
53758;BME280;39674;59.860;30.672;2023-02-04T08:44:02;101760.88;;;-2.67;100.00
53758;BME280;39674;59.860;30.672;2023-02-04T08:46:30;101771.25;;;-2.67;100.00
53758;BME280;39674;59.860;30.672;2023-02-04T08:48:59;101775.53;;;-2.67;100.00
53758;BME280;39674;59.860;30.672;2023-02-04T08:51:28;101781.50;;;-2.70;100.00
53758;BME280;39674;59.860;30.672;2023-02-04T08:53:56;101780.69;;;-2.67;100.00
53758;BME280;39674;59.860;30.672;2023-02-04T08:56:28;101783.28;;;-2.67;100.00
53758;BME280;39674;59.860;30.672;2023-02-04T08:58:58;101792.78;;;-2.66;100.00
53758;BME280;39674;59.860;30.672;2023-02-04T09:01:27;101797.16;;;-2.64;100.00
53758;BME280;39674;59.860;30.672;2023-02-04T09:04:12;101804.13;;;-2.61;100.00
53758;BME280;39674;59.860;30.672;2023-02-04T09:06:45;101808.44;;;-2.60;100.00
53758;BME280;39674;59.860;30.672;2023-02-04T09:09:18;101809.31;;;-2.60;100.00
53758;BME280;39674;59.860;30.672;2023-02-04T09:11:49;101818.78;;;-2.60;100.00
53758;BME280;39674;59.860;30.672;2023-02-04T09:14:20;101820.59;;;-2.56;100.00
53758;BME280;39674;59.860;30.672;2023-02-04T09:16:54;101817.19;;;-2.55;100.00
53758;BME280;39674;59.860;30.672;2023-02-04T09:19:37;101821.53;;;-2.52;100.00
53758;BME280;39674;59.860;30.672;2023-02-04T09:22:08;101824.06;;;-2.54;100.00
53758;BME280;39674;59.860;30.672;2023-02-04T09:24:41;101829.31;;;-2.52;100.00
53758;BME280;39674;59.860;30.672;2023-02-04T09:29:55;101840.63;;;-2.47;100.00
53758;BME280;39674;59.860;30.672;2023-02-04T09:32:27;101838.03;;;-2.46;100.00
53758;BME280;39674;59.860;30.672;2023-02-04T09:35:08;101841.56;;;-2.44;100.00
53758;BME280;39674;59.860;30.672;2023-02-04T09:37:40;101846.63;;;-2.48;100.00
53758;BME280;39674;59.860;30.672;2023-02-04T09:40:09;101846.59;;;-2.50;100.00
53758;BME280;39674;59.860;30.672;2023-02-04T09:42:46;101854.34;;;-2.50;100.00
53758;BME280;39674;59.860;30.672;2023-02-04T09:45:22;101855.25;;;-2.48;100.00
53758;BME280;39674;59.860;30.672;2023-02-04T09:47:53;101860.50;;;-2.45;100.00
53758;BME280;39674;59.860;30.672;2023-02-04T09:50:22;101860.56;;;-2.42;100.00
53758;BME280;39674;59.860;30.672;2023-02-04T09:52:55;101867.47;;;-2.40;100.00
53758;BME280;39674;59.860;30.672;2023-02-04T09:55:27;101870.13;;;-2.37;100.00
53758;BME280;39674;59.860;30.672;2023-02-04T09:57:59;101868.34;;;-2.40;100.00
53758;BME280;39674;59.860;30.672;2023-02-04T10:00:33;101865.78;;;-2.38;100.00
53758;BME280;39674;59.860;30.672;2023-02-04T10:03:01;101879.56;;;-2.39;100.00
53758;BME280;39674;59.860;30.672;2023-02-04T10:05:31;101877.91;;;-2.37;100.00
53758;BME280;39674;59.860;30.672;2023-02-04T10:08:06;101877.94;;;-2.34;100.00
53758;BME280;39674;59.860;30.672;2023-02-04T10:10:36;101886.56;;;-2.35;100.00
53758;BME280;39674;59.860;30.672;2023-02-04T10:13:08;101883.19;;;-2.31;100.00
53758;BME280;39674;59.860;30.672;2023-02-04T10:15:47;101886.56;;;-2.35;100.00
53758;BME280;39674;59.860;30.672;2023-02-04T10:18:18;101895.22;;;-2.33;100.00
53758;BME280;39674;59.860;30.672;2023-02-04T10:20:47;101896.94;;;-2.35;100.00
53758;BME280;39674;59.860;30.672;2023-02-04T10:23:16;101898.66;;;-2.34;100.00
53758;BME280;39674;59.860;30.672;2023-02-04T10:25:49;101902.09;;;-2.35;100.00
53758;BME280;39674;59.860;30.672;2023-02-04T10:28:25;101911.50;;;-2.39;100.00
53758;BME280;39674;59.860;30.672;2023-02-04T10:31:02;101914.13;;;-2.37;100.00
53758;BME280;39674;59.860;30.672;2023-02-04T10:33:30;101917.63;;;-2.35;100.00
53758;BME280;39674;59.860;30.672;2023-02-04T10:36:03;101919.34;;;-2.34;100.00
53758;BME280;39674;59.860;30.672;2023-02-04T10:38:40;101923.69;;;-2.33;100.00
53758;BME280;39674;59.860;30.672;2023-02-04T10:41:11;101928.84;;;-2.35;100.00
53758;BME280;39674;59.860;30.672;2023-02-04T10:43:46;101932.25;;;-2.36;100.00
53758;BME280;39674;59.860;30.672;2023-02-04T10:46:18;101930.59;;;-2.34;100.00
53758;BME280;39674;59.860;30.672;2023-02-04T10:48:47;101929.66;;;-2.37;100.00
53758;BME280;39674;59.860;30.672;2023-02-04T10:51:21;101938.38;;;-2.32;100.00
53758;BME280;39674;59.860;30.672;2023-02-04T10:53:52;101941.75;;;-2.36;100.00
53758;BME280;39674;59.860;30.672;2023-02-04T10:56:39;101952.09;;;-2.36;100.00
53758;BME280;39674;59.860;30.672;2023-02-04T10:59:12;101947.88;;;-2.33;100.00
53758;BME280;39674;59.860;30.672;2023-02-04T11:01:51;101952.97;;;-2.36;100.00
53758;BME280;39674;59.860;30.672;2023-02-04T11:04:24;101965.06;;;-2.35;100.00
53758;BME280;39674;59.860;30.672;2023-02-04T11:06:57;101955.56;;;-2.36;100.00
53758;BME280;39674;59.860;30.672;2023-02-04T11:09:27;101960.75;;;-2.34;100.00
53758;BME280;39674;59.860;30.672;2023-02-04T11:11:57;101970.25;;;-2.35;100.00
53758;BME280;39674;59.860;30.672;2023-02-04T11:14:29;101973.75;;;-2.33;100.00
53758;BME280;39674;59.860;30.672;2023-02-04T11:17:02;101979.78;;;-2.32;100.00
53758;BME280;39674;59.860;30.672;2023-02-04T11:19:35;101979.78;;;-2.32;100.00
53758;BME280;39674;59.860;30.672;2023-02-04T11:22:04;101989.28;;;-2.33;100.00
53758;BME280;39674;59.860;30.672;2023-02-04T11:24:37;101990.13;;;-2.32;100.00
53758;BME280;39674;59.860;30.672;2023-02-04T11:27:06;101993.50;;;-2.36;100.00
53758;BME280;39674;59.860;30.672;2023-02-04T11:29:37;102002.16;;;-2.34;100.00
53758;BME280;39674;59.860;30.672;2023-02-04T11:32:26;102000.44;;;-2.35;100.00
53758;BME280;39674;59.860;30.672;2023-02-04T11:35:05;102010.78;;;-2.35;100.00
53758;BME280;39674;59.860;30.672;2023-02-04T11:37:39;102015.97;;;-2.35;100.00
53758;BME280;39674;59.860;30.672;2023-02-04T11:40:20;102022.88;;;-2.34;100.00
53758;BME280;39674;59.860;30.672;2023-02-04T11:43:08;102020.28;;;-2.34;100.00
53758;BME280;39674;59.860;30.672;2023-02-04T11:46:09;102024.69;;;-2.30;100.00
53758;BME280;39674;59.860;30.672;2023-02-04T11:49:01;102032.38;;;-2.33;100.00
53758;BME280;39674;59.860;30.672;2023-02-04T11:51:35;102031.50;;;-2.35;100.00
53758;BME280;39674;59.860;30.672;2023-02-04T11:54:16;102042.72;;;-2.33;100.00
53758;BME280;39674;59.860;30.672;2023-02-04T11:56:51;102042.72;;;-2.33;100.00
53758;BME280;39674;59.860;30.672;2023-02-04T11:59:20;102044.59;;;-2.28;100.00
53758;BME280;39674;59.860;30.672;2023-02-04T12:01:48;102046.13;;;-2.36;100.00
53758;BME280;39674;59.860;30.672;2023-02-04T12:04:27;102048.75;;;-2.34;100.00
53758;BME280;39674;59.860;30.672;2023-02-04T12:06:58;102059.97;;;-2.35;100.00
53758;BME280;39674;59.860;30.672;2023-02-04T12:09:27;102060.78;;;-2.36;100.00
53758;BME280;39674;59.860;30.672;2023-02-04T12:12:21;102067.72;;;-2.35;100.00
53758;BME280;39674;59.860;30.672;2023-02-04T12:14:59;102066.81;;;-2.37;100.00
53758;BME280;39674;59.860;30.672;2023-02-04T12:17:39;102075.41;;;-2.38;100.00
53758;BME280;39674;59.860;30.672;2023-02-04T12:20:20;102078.81;;;-2.39;100.00
53758;BME280;39674;59.860;30.672;2023-02-04T12:22:49;102079.75;;;-2.37;100.00
53758;BME280;39674;59.860;30.672;2023-02-04T12:25:31;102082.22;;;-2.42;100.00
53758;BME280;39674;59.860;30.672;2023-02-04T12:28:01;102095.13;;;-2.44;100.00
53758;BME280;39674;59.860;30.672;2023-02-04T12:30:32;102084.78;;;-2.44;100.00
53758;BME280;39674;59.860;30.672;2023-02-04T12:33:08;102100.28;;;-2.44;100.00
53758;BME280;39674;59.860;30.672;2023-02-04T12:35:45;102100.34;;;-2.40;100.00
53758;BME280;39674;59.860;30.672;2023-02-04T12:38:26;102105.53;;;-2.40;100.00
53758;BME280;39674;59.860;30.672;2023-02-04T12:40:55;102112.53;;;-2.36;100.00
53758;BME280;39674;59.860;30.672;2023-02-04T12:43:27;102126.22;;;-2.40;100.00
53758;BME280;39674;59.860;30.672;2023-02-04T12:46:01;102127.16;;;-2.38;100.00
53758;BME280;39674;59.860;30.672;2023-02-04T12:48:35;102128.88;;;-2.39;100.00
53758;BME280;39674;59.860;30.672;2023-02-04T12:51:16;102138.34;;;-2.39;100.00
53758;BME280;39674;59.860;30.672;2023-02-04T12:53:47;102138.38;;;-2.38;100.00
53758;BME280;39674;59.860;30.672;2023-02-04T12:56:19;102147.09;;;-2.34;100.00
53758;BME280;39674;59.860;30.672;2023-02-04T12:58:51;102153.97;;;-2.36;100.00
53758;BME280;39674;59.860;30.672;2023-02-04T13:01:23;102145.34;;;-2.35;100.00
53758;BME280;39674;59.860;30.672;2023-02-04T13:03:57;102155.72;;;-2.35;100.00
53758;BME280;39674;59.860;30.672;2023-02-04T13:06:27;102153.97;;;-2.36;100.00
53758;BME280;39674;59.860;30.672;2023-02-04T13:09:10;102153.97;;;-2.36;100.00
53758;BME280;39674;59.860;30.672;2023-02-04T13:11:40;102155.66;;;-2.37;100.00
53758;BME280;39674;59.860;30.672;2023-02-04T13:14:12;102159.03;;;-2.39;100.00
53758;BME280;39674;59.860;30.672;2023-02-04T13:16:43;102165.13;;;-2.37;100.00
53758;BME280;39674;59.860;30.672;2023-02-04T13:19:16;102162.47;;;-2.40;100.00
53758;BME280;39674;59.860;30.672;2023-02-04T13:21:52;102167.63;;;-2.40;100.00
53758;BME280;39674;59.860;30.672;2023-02-04T13:24:23;102171.97;;;-2.39;100.00
53758;BME280;39674;59.860;30.672;2023-02-04T13:26:56;102176.25;;;-2.42;100.00
53758;BME280;39674;59.860;30.672;2023-02-04T13:29:36;102183.97;;;-2.43;100.00
53758;BME280;39674;59.860;30.672;2023-02-04T13:32:07;102177.03;;;-2.44;100.00
53758;BME280;39674;59.860;30.672;2023-02-04T13:34:37;102187.44;;;-2.43;100.00
53758;BME280;39674;59.860;30.672;2023-02-04T13:37:11;102187.38;;;-2.44;100.00
53758;BME280;39674;59.860;30.672;2023-02-04T13:39:45;102201.09;;;-2.48;100.00
53758;BME280;39674;59.860;30.672;2023-02-04T13:42:22;102204.50;;;-2.49;100.00
53758;BME280;39674;59.860;30.672;2023-02-04T13:45:13;102201.88;;;-2.51;100.00
53758;BME280;39674;59.860;30.672;2023-02-04T13:47:48;102203.53;;;-2.53;100.00
53758;BME280;39674;59.860;30.672;2023-02-04T13:50:20;102212.13;;;-2.54;100.00
53758;BME280;39674;59.860;30.672;2023-02-04T13:53:04;102208.78;;;-2.51;100.00
53758;BME280;39674;59.860;30.672;2023-02-04T13:55:40;102212.19;;;-2.52;100.00
53758;BME280;39674;59.860;30.672;2023-02-04T13:58:14;102212.91;;;-2.58;100.00
53758;BME280;39674;59.860;30.672;2023-02-04T14:00:59;102214.63;;;-2.59;100.00
53758;BME280;39674;59.860;30.672;2023-02-04T14:03:59;102215.47;;;-2.58;100.00
53758;BME280;39674;59.860;30.672;2023-02-04T14:06:31;102225.94;;;-2.55;100.00
53758;BME280;39674;59.860;30.672;2023-02-04T14:09:17;102229.25;;;-2.59;100.00
53758;BME280;39674;59.860;30.672;2023-02-04T14:11:59;102233.59;;;-2.58;100.00
53758;BME280;39674;59.860;30.672;2023-02-04T14:14:29;102229.97;;;-2.65;100.00
53758;BME280;39674;59.860;30.672;2023-02-04T14:16:57;102243.00;;;-2.60;100.00
53758;BME280;39674;59.860;30.672;2023-02-04T14:19:34;102244.78;;;-2.59;100.00
53758;BME280;39674;59.860;30.672;2023-02-04T14:22:02;102253.34;;;-2.60;100.00
53758;BME280;39674;59.860;30.672;2023-02-04T14:24:36;102253.34;;;-2.60;100.00
53758;BME280;39674;59.860;30.672;2023-02-04T14:27:09;102250.59;;;-2.66;100.00
53758;BME280;39674;59.860;30.672;2023-02-04T14:29:41;102265.28;;;-2.65;100.00
53758;BME280;39674;59.860;30.672;2023-02-04T14:32:14;102267.06;;;-2.64;100.00
53758;BME280;39674;59.860;30.672;2023-02-04T14:34:58;102274.81;;;-2.64;100.00
53758;BME280;39674;59.860;30.672;2023-02-04T14:37:32;102274.91;;;-2.61;100.00
53758;BME280;39674;59.860;30.672;2023-02-04T14:40:08;102278.38;;;-2.61;100.00
53758;BME280;39674;59.860;30.672;2023-02-04T14:42:39;102282.53;;;-2.66;100.00
53758;BME280;39674;59.860;30.672;2023-02-04T14:45:20;102283.41;;;-2.65;100.00
53758;BME280;39674;59.860;30.672;2023-02-04T14:48:10;102283.44;;;-2.64;100.00
53758;BME280;39674;59.860;30.672;2023-02-04T14:50:40;102281.78;;;-2.62;100.00
53758;BME280;39674;59.860;30.672;2023-02-04T14:53:08;102298.09;;;-2.64;100.00
53758;BME280;39674;59.860;30.672;2023-02-04T14:55:48;102294.69;;;-2.63;100.00
53758;BME280;39674;59.860;30.672;2023-02-04T14:58:41;102290.22;;;-2.67;100.00
53758;BME280;39674;59.860;30.672;2023-02-04T15:01:15;102296.16;;;-2.71;100.00
53758;BME280;39674;59.860;30.672;2023-02-04T15:04:03;102295.38;;;-2.69;100.00
53758;BME280;39674;59.860;30.672;2023-02-04T15:06:44;102306.50;;;-2.71;100.00
53758;BME280;39674;59.860;30.672;2023-02-04T15:09:20;102309.09;;;-2.71;100.00
53758;BME280;39674;59.860;30.672;2023-02-04T15:12:06;102309.91;;;-2.72;100.00
53758;BME280;39674;59.860;30.672;2023-02-04T15:14:35;102316.00;;;-2.72;100.00
53758;BME280;39674;59.860;30.672;2023-02-04T15:17:06;102320.25;;;-2.72;100.00
53758;BME280;39674;59.860;30.672;2023-02-04T15:19:58;102322.03;;;-2.71;100.00
53758;BME280;39674;59.860;30.672;2023-02-04T15:22:40;102332.38;;;-2.71;100.00
53758;BME280;39674;59.860;30.672;2023-02-04T15:25:29;102334.13;;;-2.70;100.00
53758;BME280;39674;59.860;30.672;2023-02-04T15:28:05;102346.13;;;-2.72;100.00
53758;BME280;39674;59.860;30.672;2023-02-04T15:30:50;102348.72;;;-2.72;100.00
53758;BME280;39674;59.860;30.672;2023-02-04T15:33:23;102342.66;;;-2.75;100.00
53758;BME280;39674;59.860;30.672;2023-02-04T15:38:36;102359.03;;;-2.74;100.00
53758;BME280;39674;59.860;30.672;2023-02-04T15:41:36;102366.78;;;-2.74;100.00
53758;BME280;39674;59.860;30.672;2023-02-04T15:44:12;102371.03;;;-2.76;100.00
53758;BME280;39674;59.860;30.672;2023-02-04T15:46:48;102376.25;;;-2.75;100.00
53758;BME280;39674;59.860;30.672;2023-02-04T15:49:59;102384.03;;;-2.75;100.00
53758;BME280;39674;59.860;30.672;2023-02-04T15:52:34;102389.28;;;-2.71;100.00
53758;BME280;39674;59.860;30.672;2023-02-04T15:55:07;102388.34;;;-2.74;100.00
53758;BME280;39674;59.860;30.672;2023-02-04T15:57:40;102392.69;;;-2.72;100.00
53758;BME280;39674;59.860;30.672;2023-02-04T16:00:16;102397.84;;;-2.72;100.00
53758;BME280;39674;59.860;30.672;2023-02-04T16:03:20;102406.44;;;-2.74;100.00
53758;BME280;39674;59.860;30.672;2023-02-04T16:06:28;102409.88;;;-2.75;100.00
53758;BME280;39674;59.860;30.672;2023-02-04T16:08:59;102413.38;;;-2.72;100.00
53758;BME280;39674;59.860;30.672;2023-02-04T16:11:29;102416.94;;;-2.69;100.00
53758;BME280;39674;59.860;30.672;2023-02-04T16:14:09;102425.50;;;-2.71;100.00
53758;BME280;39674;59.860;30.672;2023-02-04T16:19:34;102444.34;;;-2.76;100.00
53758;BME280;39674;59.860;30.672;2023-02-04T16:22:05;102438.28;;;-2.76;100.00
53758;BME280;39674;59.860;30.672;2023-02-04T16:24:39;102440.00;;;-2.77;100.00
53758;BME280;39674;59.860;30.672;2023-02-04T16:27:31;102442.56;;;-2.77;100.00
53758;BME280;39674;59.860;30.672;2023-02-04T16:30:01;102449.59;;;-2.72;100.00
53758;BME280;39674;59.860;30.672;2023-02-04T16:32:50;102452.91;;;-2.77;100.00
53758;BME280;39674;59.860;30.672;2023-02-04T16:35:25;102457.97;;;-2.80;100.00
53758;BME280;39674;59.860;30.672;2023-02-04T16:38:00;102457.19;;;-2.77;100.00
53758;BME280;39674;59.860;30.672;2023-02-04T16:40:50;102463.16;;;-2.80;100.00
53758;BME280;39674;59.860;30.672;2023-02-04T16:43:25;102461.44;;;-2.81;100.00
53758;BME280;39674;59.860;30.672;2023-02-04T16:47:14;102469.13;;;-2.82;100.00
53758;BME280;39674;59.860;30.672;2023-02-04T16:49:38;102473.41;;;-2.83;100.00
53758;BME280;39674;59.860;30.672;2023-02-04T16:52:15;102476.09;;;-2.80;100.00
53758;BME280;39674;59.860;30.672;2023-02-04T16:54:46;102466.59;;;-2.81;100.00
53758;BME280;39674;59.860;30.672;2023-02-04T16:57:25;102470.91;;;-2.80;100.00
53758;BME280;39674;59.860;30.672;2023-02-04T16:59:57;102469.19;;;-2.81;100.00
53758;BME280;39674;59.860;30.672;2023-02-04T17:03:08;102481.34;;;-2.78;100.00
53758;BME280;39674;59.860;30.672;2023-02-04T17:05:56;102483.81;;;-2.81;100.00
53758;BME280;39674;59.860;30.672;2023-02-04T17:08:44;102486.38;;;-2.81;100.00
53758;BME280;39674;59.860;30.672;2023-02-04T17:11:43;102496.69;;;-2.83;100.00
53758;BME280;39674;59.860;30.672;2023-02-04T17:14:40;102501.91;;;-2.81;100.00
53758;BME280;39674;59.860;30.672;2023-02-04T17:17:25;102496.72;;;-2.81;100.00
53758;BME280;39674;59.860;30.672;2023-02-04T17:20:25;102499.28;;;-2.83;100.00
53758;BME280;39674;59.860;30.672;2023-02-04T17:23:50;102509.63;;;-2.83;100.00
